createdAt,value
2019-05-18T00:00:19.725Z,1.8
2019-05-18T00:01:29.267Z,1
2019-05-18T00:02:38.769Z,1.4
2019-05-18T00:03:48.307Z,1.2
2019-05-18T00:04:57.829Z,1
2019-05-18T00:06:07.346Z,1.1
2019-05-18T00:07:16.860Z,1
2019-05-18T00:08:26.400Z,0.8
2019-05-18T00:09:35.927Z,1
2019-05-18T00:10:45.433Z,1
2019-05-18T00:11:54.942Z,1.1
2019-05-18T00:13:04.465Z,1
2019-05-18T00:14:14.010Z,1
2019-05-18T00:15:23.546Z,0.9
2019-05-18T00:16:33.054Z,1
2019-05-18T00:17:42.579Z,1
2019-05-18T00:18:52.114Z,0.9
2019-05-18T00:20:01.635Z,0.9
2019-05-18T00:21:11.125Z,0.9
2019-05-18T00:22:20.623Z,0.8
2019-05-18T00:23:30.143Z,1.1
2019-05-18T00:24:39.731Z,1.1
2019-05-18T00:25:49.231Z,0.9
2019-05-18T00:26:58.731Z,0.9
2019-05-18T00:28:08.263Z,1.1
2019-05-18T00:29:17.932Z,1
2019-05-18T00:30:27.452Z,1
2019-05-18T00:31:36.952Z,0.8
2019-05-18T00:32:46.465Z,1.2
2019-05-18T00:33:55.970Z,1.4
2019-05-18T00:35:05.531Z,0.9
2019-05-18T00:36:15.046Z,0.9
2019-05-18T00:37:24.565Z,0.8
2019-05-18T00:38:34.064Z,0.9
2019-05-18T00:39:43.637Z,1
2019-05-18T00:40:53.140Z,1
2019-05-18T00:42:02.656Z,0.9
2019-05-18T00:43:12.184Z,0.8
2019-05-18T00:44:21.689Z,1.1
2019-05-18T00:45:31.214Z,1
2019-05-18T00:46:40.729Z,1.1
2019-05-18T00:47:50.231Z,1
2019-05-18T00:48:59.763Z,1.1
2019-05-18T00:50:09.287Z,1
2019-05-18T00:51:18.784Z,0.8
2019-05-18T00:52:29.301Z,1.1
2019-05-18T00:53:38.839Z,0.9
2019-05-18T00:54:48.415Z,1
2019-05-18T00:55:57.951Z,1.1
2019-05-18T00:57:07.498Z,0.7
2019-05-18T00:58:17.030Z,1
2019-05-18T00:59:26.530Z,0.8
2019-05-18T01:00:36.072Z,1
2019-05-18T01:01:45.578Z,0.9
2019-05-18T01:02:55.145Z,1.1
2019-05-18T01:04:04.656Z,0.7
2019-05-18T01:05:14.248Z,1
2019-05-18T01:06:23.778Z,1
2019-05-18T01:07:33.282Z,0.7
2019-05-18T01:08:42.785Z,0.9
2019-05-18T01:09:52.289Z,0.6
2019-05-18T01:11:01.833Z,1
2019-05-18T01:12:11.347Z,0.8
2019-05-18T01:13:20.852Z,1
2019-05-18T01:14:30.395Z,0.8
2019-05-18T01:15:39.960Z,1.1
2019-05-18T01:16:49.481Z,1
2019-05-18T01:18:01.913Z,0.6
2019-05-18T01:19:09.487Z,0.7
2019-05-18T01:20:19.009Z,1
2019-05-18T01:21:28.531Z,0.8
2019-05-18T01:22:38.057Z,1.3
2019-05-18T01:23:47.597Z,0.6
2019-05-18T01:24:57.149Z,0.8
2019-05-18T01:26:06.698Z,0.7
2019-05-18T01:27:16.205Z,1
2019-05-18T01:28:25.734Z,0.7
2019-05-18T01:29:35.239Z,0.8
2019-05-18T01:30:44.772Z,0.8
2019-05-18T01:31:54.309Z,0.9
2019-05-18T01:33:03.845Z,0.8
2019-05-18T01:34:13.355Z,0.9
2019-05-18T01:35:22.890Z,0.9
2019-05-18T01:36:32.461Z,0.6
2019-05-18T01:37:41.983Z,0.7
2019-05-18T01:38:51.499Z,1.4
2019-05-18T01:40:01.011Z,1.5
2019-05-18T01:41:10.529Z,1
2019-05-18T01:42:20.110Z,0.8
2019-05-18T01:43:29.643Z,0.7
2019-05-18T01:44:39.140Z,0.8
2019-05-18T01:45:48.670Z,0.8
2019-05-18T01:46:58.228Z,0.8
2019-05-18T01:48:13.581Z,0.6
2019-05-18T01:49:18.249Z,0.7
2019-05-18T01:50:27.749Z,1.1
2019-05-18T01:51:37.305Z,0.7
2019-05-18T01:52:46.806Z,0.8
2019-05-18T01:53:56.338Z,0.8
2019-05-18T01:55:05.848Z,0.6
2019-05-18T01:56:15.374Z,0.6
2019-05-18T01:57:24.935Z,0.6
2019-05-18T01:58:34.472Z,0.7
2019-05-18T01:59:43.996Z,0.8
2019-05-18T02:00:53.514Z,0.9
2019-05-18T02:02:03.087Z,0.9
2019-05-18T02:03:12.600Z,0.6
2019-05-18T02:04:22.129Z,0.8
2019-05-18T02:05:31.627Z,0.9
2019-05-18T02:06:41.140Z,1.1
2019-05-18T02:07:50.812Z,0.5
2019-05-18T02:09:00.209Z,0.8
2019-05-18T02:10:09.715Z,0.8
2019-05-18T02:11:19.248Z,0.6
2019-05-18T02:12:28.810Z,0.8
2019-05-18T02:13:38.320Z,0.6
2019-05-18T02:14:47.833Z,0.7
2019-05-18T02:15:57.361Z,0.8
2019-05-18T02:17:06.897Z,0.7
2019-05-18T02:18:28.140Z,0.8
2019-05-18T02:19:26.914Z,0.4
2019-05-18T02:20:36.436Z,1
2019-05-18T02:21:45.946Z,0.7
2019-05-18T02:22:55.493Z,0.8
2019-05-18T02:24:05.009Z,1
2019-05-18T02:25:14.537Z,0.6
2019-05-18T02:26:24.050Z,0.7
2019-05-18T02:27:33.606Z,0.5
2019-05-18T02:28:43.128Z,0.7
2019-05-18T02:29:52.640Z,0.7
2019-05-18T02:31:02.153Z,0.9
2019-05-18T02:32:11.675Z,0.7
2019-05-18T02:33:21.195Z,0.6
2019-05-18T02:34:30.694Z,0.8
2019-05-18T02:35:40.208Z,0.9
2019-05-18T02:36:49.707Z,0.8
2019-05-18T02:37:59.249Z,0.5
2019-05-18T02:39:08.791Z,0.5
2019-05-18T02:40:18.317Z,0.8
2019-05-18T02:41:27.826Z,0.6
2019-05-18T02:42:37.347Z,0.6
2019-05-18T02:43:46.895Z,0.9
2019-05-18T02:44:56.416Z,0.7
2019-05-18T02:46:05.929Z,0.7
2019-05-18T02:47:15.445Z,0.7
2019-05-18T02:48:24.978Z,0.5
2019-05-18T02:49:34.482Z,0.9
2019-05-18T02:50:44.008Z,0.7
2019-05-18T02:51:53.507Z,0.7
2019-05-18T02:53:03.082Z,0.8
2019-05-18T02:54:12.601Z,0.6
2019-05-18T02:55:22.100Z,0.6
2019-05-18T02:56:31.605Z,0.8
2019-05-18T02:57:41.142Z,0.7
2019-05-18T02:58:50.672Z,0.6
2019-05-18T03:00:00.200Z,0.5
2019-05-18T03:01:09.735Z,0.7
2019-05-18T03:02:19.217Z,0.6
2019-05-18T03:03:28.769Z,0.7
2019-05-18T03:04:38.282Z,0.8
2019-05-18T03:05:47.805Z,0.7
2019-05-18T03:06:57.337Z,0.6
2019-05-18T03:08:06.901Z,0.5
2019-05-18T03:09:16.427Z,0.6
2019-05-18T03:10:25.953Z,0.5
2019-05-18T03:11:35.456Z,0.8
2019-05-18T03:12:44.955Z,1
2019-05-18T03:13:54.505Z,0.7
2019-05-18T03:15:03.995Z,0.8
2019-05-18T03:16:13.505Z,0.8
2019-05-18T03:17:23.010Z,0.6
2019-05-18T03:18:32.542Z,1
2019-05-18T03:19:42.091Z,0.7
2019-05-18T03:20:51.614Z,0.5
2019-05-18T03:22:01.279Z,0.6
2019-05-18T03:23:10.684Z,0.9
2019-05-18T03:24:20.222Z,0.8
2019-05-18T03:25:29.746Z,0.6
2019-05-18T03:26:39.268Z,0.6
2019-05-18T03:27:48.778Z,0.9
2019-05-18T03:28:58.330Z,0.7
2019-05-18T03:30:07.863Z,0.8
2019-05-18T03:31:17.380Z,0.6
2019-05-18T03:32:26.866Z,1
2019-05-18T03:33:36.392Z,0.7
2019-05-18T03:34:45.923Z,0.8
2019-05-18T03:35:55.445Z,0.6
2019-05-18T03:37:04.946Z,0.7
2019-05-18T03:38:14.513Z,0.8
2019-05-18T03:39:24.041Z,0.6
2019-05-18T03:40:33.530Z,0.6
2019-05-18T03:41:43.043Z,0.5
2019-05-18T03:42:52.549Z,0.7
2019-05-18T03:44:02.108Z,0.7
2019-05-18T03:45:11.620Z,0.5
2019-05-18T03:46:23.876Z,0.9
2019-05-18T03:47:31.655Z,0.7
2019-05-18T03:48:41.232Z,0.6
2019-05-18T03:49:50.761Z,0.7
2019-05-18T03:51:00.291Z,0.8
2019-05-18T03:52:09.810Z,0.6
2019-05-18T03:53:19.303Z,0.9
2019-05-18T03:54:28.865Z,0.7
2019-05-18T03:55:38.365Z,1
2019-05-18T03:56:47.876Z,0.5
2019-05-18T03:57:58.414Z,0.6
2019-05-18T03:59:07.955Z,0.7
2019-05-18T04:00:17.505Z,1
2019-05-18T04:01:27.031Z,0.8
2019-05-18T04:02:36.547Z,0.6
2019-05-18T04:03:46.084Z,0.8
2019-05-18T04:04:55.620Z,1.1
2019-05-18T04:06:05.148Z,1
2019-05-18T04:07:14.667Z,0.9
2019-05-18T04:08:24.183Z,0.6
2019-05-18T04:09:33.761Z,0.6
2019-05-18T04:10:43.259Z,0.8
2019-05-18T04:11:52.761Z,0.7
2019-05-18T04:13:02.267Z,0.6
2019-05-18T04:14:11.752Z,0.5
2019-05-18T04:15:21.300Z,0.7
2019-05-18T04:16:30.833Z,0.9
2019-05-18T04:17:40.380Z,1.1
2019-05-18T04:18:49.883Z,0.7
2019-05-18T04:19:59.463Z,0.7
2019-05-18T04:21:08.994Z,0.6
2019-05-18T04:22:18.499Z,0.5
2019-05-18T04:23:27.997Z,0.9
2019-05-18T04:24:37.510Z,0.6
2019-05-18T04:25:47.040Z,0.7
2019-05-18T04:26:56.547Z,0.7
2019-05-18T04:28:06.062Z,0.6
2019-05-18T04:29:15.569Z,0.8
2019-05-18T04:30:25.124Z,0.8
2019-05-18T04:31:34.618Z,0.7
2019-05-18T04:32:44.143Z,0.5
2019-05-18T04:33:53.659Z,0.9
2019-05-18T04:35:03.173Z,0.7
2019-05-18T04:36:12.734Z,0.7
2019-05-18T04:37:22.239Z,0.7
2019-05-18T04:38:31.751Z,0.7
2019-05-18T04:39:41.264Z,1
2019-05-18T04:40:50.832Z,0.8
2019-05-18T04:42:00.369Z,0.9
2019-05-18T04:43:09.890Z,0.7
2019-05-18T04:44:19.403Z,0.9
2019-05-18T04:45:28.918Z,1
2019-05-18T04:46:38.485Z,0.7
2019-05-18T04:47:48.767Z,0.8
2019-05-18T04:48:58.522Z,0.7
2019-05-18T04:50:08.020Z,0.9
2019-05-18T04:51:17.564Z,0.6
2019-05-18T04:52:27.071Z,0.8
2019-05-18T04:53:36.573Z,0.8
2019-05-18T04:54:46.101Z,0.8
2019-05-18T04:55:55.781Z,0.9
2019-05-18T04:57:05.288Z,0.9
2019-05-18T04:58:14.821Z,0.8
2019-05-18T04:59:24.381Z,0.5
2019-05-18T05:00:33.881Z,0.7
2019-05-18T05:01:43.489Z,0.9
2019-05-18T05:02:52.999Z,1
2019-05-18T05:04:02.514Z,0.7
2019-05-18T05:05:12.037Z,0.7
2019-05-18T05:06:21.585Z,0.6
2019-05-18T05:07:31.096Z,0.9
2019-05-18T05:08:40.626Z,1
2019-05-18T05:09:50.138Z,0.6
2019-05-18T05:10:59.745Z,0.8
2019-05-18T05:12:09.261Z,1
2019-05-18T05:13:18.768Z,0.8
2019-05-18T05:14:28.292Z,0.7
2019-05-18T05:15:37.792Z,0.7
2019-05-18T05:16:47.323Z,0.7
2019-05-18T05:17:56.846Z,1
2019-05-18T05:19:08.631Z,0.9
2019-05-18T05:20:19.547Z,0.9
2019-05-18T05:21:27.372Z,0.8
2019-05-18T05:22:36.886Z,0.7
2019-05-18T05:23:46.390Z,0.9
2019-05-18T05:24:55.916Z,1.2
2019-05-18T05:26:05.495Z,0.7
2019-05-18T05:27:14.995Z,0.9
2019-05-18T05:28:24.536Z,0.6
2019-05-18T05:29:34.040Z,0.7
2019-05-18T05:30:43.551Z,0.8
2019-05-18T05:31:53.102Z,0.7
2019-05-18T05:33:02.621Z,0.7
2019-05-18T05:34:12.136Z,0.8
2019-05-18T05:35:21.651Z,0.6
2019-05-18T05:36:31.221Z,0.7
2019-05-18T05:37:40.734Z,0.7
2019-05-18T05:38:50.236Z,0.7
2019-05-18T05:39:59.760Z,0.7
2019-05-18T05:41:09.282Z,0.9
2019-05-18T05:42:18.820Z,0.6
2019-05-18T05:43:28.321Z,0.7
2019-05-18T05:44:37.826Z,1
2019-05-18T05:45:47.326Z,0.7
2019-05-18T05:46:56.883Z,0.6
2019-05-18T05:48:06.423Z,0.7
2019-05-18T05:49:15.944Z,0.9
2019-05-18T05:50:35.064Z,0.8
2019-05-18T05:51:36.042Z,0.8
2019-05-18T05:52:45.589Z,0.8
2019-05-18T05:53:55.111Z,0.6
2019-05-18T05:55:04.649Z,0.7
2019-05-18T05:56:14.272Z,1
2019-05-18T05:57:23.825Z,0.7
2019-05-18T05:58:33.369Z,0.9
2019-05-18T05:59:43.021Z,0.6
2019-05-18T06:00:52.544Z,0.7
2019-05-18T06:02:02.139Z,0.9
2019-05-18T06:03:11.679Z,0.9
2019-05-18T06:04:21.223Z,0.7
2019-05-18T06:05:30.743Z,0.7
2019-05-18T06:06:40.261Z,0.7
2019-05-18T06:07:49.796Z,0.7
2019-05-18T06:08:59.309Z,0.8
2019-05-18T06:10:08.817Z,1.1
2019-05-18T06:11:18.338Z,1.3
2019-05-18T06:12:27.898Z,1.2
2019-05-18T06:13:37.449Z,3.2
2019-05-18T06:14:47.018Z,0.8
2019-05-18T06:15:56.521Z,0.9
2019-05-18T06:17:08.369Z,0.8
2019-05-18T06:18:16.662Z,0.7
2019-05-18T06:19:26.397Z,0.7
2019-05-18T06:20:50.320Z,0.9
2019-05-18T06:21:47.134Z,1.1
2019-05-18T06:22:56.710Z,0.8
2019-05-18T06:24:06.314Z,0.7
2019-05-18T06:25:15.981Z,0.8
2019-05-18T06:26:25.421Z,0.6
2019-05-18T06:27:34.942Z,1
2019-05-18T06:28:44.502Z,1.1
2019-05-18T06:29:54.012Z,1.2
2019-05-18T06:31:03.510Z,0.8
2019-05-18T06:32:13.031Z,1
2019-05-18T06:33:22.576Z,0.5
2019-05-18T06:34:32.124Z,0.9
2019-05-18T06:35:41.658Z,0.6
2019-05-18T06:36:51.184Z,0.9
2019-05-18T06:38:00.681Z,0.8
2019-05-18T06:39:10.237Z,1
2019-05-18T06:40:19.762Z,1
2019-05-18T06:41:29.283Z,1
2019-05-18T06:42:38.828Z,1.1
2019-05-18T06:43:48.401Z,1.5
2019-05-18T06:44:57.917Z,0.6
2019-05-18T06:46:07.436Z,0.9
2019-05-18T06:47:16.977Z,0.7
2019-05-18T06:48:26.531Z,0.7
2019-05-18T06:49:36.095Z,0.7
2019-05-18T06:50:45.633Z,0.8
2019-05-18T06:51:55.157Z,0.8
2019-05-18T06:53:04.670Z,1.1
2019-05-18T06:54:14.222Z,1
2019-05-18T06:55:23.792Z,0.6
2019-05-18T06:56:33.307Z,0.8
2019-05-18T06:57:42.800Z,1.1
2019-05-18T06:58:52.466Z,0.7
2019-05-18T07:00:02.016Z,0.9
2019-05-18T07:01:11.543Z,1
2019-05-18T07:02:21.071Z,0.7
2019-05-18T07:03:30.610Z,1
2019-05-18T07:04:40.158Z,1.1
2019-05-18T07:05:49.674Z,1.1
2019-05-18T07:06:59.180Z,1.3
2019-05-18T07:08:08.707Z,1
2019-05-18T07:09:18.280Z,1
2019-05-18T07:10:27.802Z,1
2019-05-18T07:11:37.341Z,1
2019-05-18T07:12:46.875Z,0.9
2019-05-18T07:13:56.432Z,0.9
2019-05-18T07:15:06.023Z,0.8
2019-05-18T07:16:15.547Z,1.1
2019-05-18T07:17:25.077Z,0.8
2019-05-18T07:18:34.593Z,0.9
2019-05-18T07:19:44.145Z,1
2019-05-18T07:20:53.653Z,1.1
2019-05-18T07:22:03.182Z,0.9
2019-05-18T07:23:12.697Z,0.7
2019-05-18T07:24:22.250Z,0.9
2019-05-18T07:25:31.767Z,0.8
2019-05-18T07:26:41.276Z,0.8
2019-05-18T07:27:50.785Z,0.9
2019-05-18T07:29:00.376Z,0.9
2019-05-18T07:30:09.909Z,0.9
2019-05-18T07:31:19.423Z,1.1
2019-05-18T07:32:28.955Z,0.9
2019-05-18T07:33:38.484Z,0.7
2019-05-18T07:34:48.092Z,0.6
2019-05-18T07:35:57.607Z,1
2019-05-18T07:37:07.147Z,0.8
2019-05-18T07:38:16.660Z,0.9
2019-05-18T07:39:26.265Z,1
2019-05-18T07:40:35.789Z,0.8
2019-05-18T07:41:46.982Z,0.9
2019-05-18T07:42:55.801Z,1
2019-05-18T07:44:05.336Z,0.7
2019-05-18T07:45:14.885Z,0.9
2019-05-18T07:46:24.442Z,0.8
2019-05-18T07:47:33.950Z,0.8
2019-05-18T07:48:43.468Z,1.2
2019-05-18T07:49:53.136Z,1.1
2019-05-18T07:51:02.680Z,0.9
2019-05-18T07:52:12.173Z,0.9
2019-05-18T07:53:21.694Z,0.8
2019-05-18T07:54:31.231Z,0.9
2019-05-18T07:55:40.770Z,0.8
2019-05-18T07:56:50.294Z,1.1
2019-05-18T07:57:59.836Z,0.6
2019-05-18T07:59:09.368Z,0.5
2019-05-18T08:00:18.921Z,1.1
2019-05-18T08:01:28.425Z,0.9
2019-05-18T08:02:37.980Z,0.7
2019-05-18T08:03:47.515Z,0.9
2019-05-18T08:04:57.023Z,1
2019-05-18T08:06:06.618Z,0.8
2019-05-18T08:07:16.144Z,1
2019-05-18T08:08:25.660Z,0.9
2019-05-18T08:09:35.211Z,0.9
2019-05-18T08:10:44.756Z,1
2019-05-18T08:11:54.302Z,1
2019-05-18T08:13:03.819Z,0.8
2019-05-18T08:14:13.345Z,0.9
2019-05-18T08:15:22.935Z,1
2019-05-18T08:16:32.458Z,1
2019-05-18T08:17:42.019Z,0.8
2019-05-18T08:18:51.580Z,0.9
2019-05-18T08:20:01.148Z,0.9
2019-05-18T08:21:10.695Z,1
2019-05-18T08:22:20.207Z,0.6
2019-05-18T08:23:29.733Z,1.1
2019-05-18T08:24:39.271Z,1
2019-05-18T08:25:48.865Z,0.6
2019-05-18T08:27:01.539Z,0.7
2019-05-18T08:28:08.938Z,0.7
2019-05-18T08:29:18.487Z,1
2019-05-18T08:30:28.036Z,0.8
2019-05-18T08:31:37.586Z,0.6
2019-05-18T08:32:47.106Z,0.6
2019-05-18T08:33:56.625Z,0.8
2019-05-18T08:35:06.153Z,0.9
2019-05-18T08:36:15.727Z,1
2019-05-18T08:37:25.252Z,0.8
2019-05-18T08:38:34.799Z,1.1
2019-05-18T08:39:44.353Z,1.1
2019-05-18T08:40:54.921Z,0.9
2019-05-18T08:42:04.440Z,0.9
2019-05-18T08:43:14.001Z,1
2019-05-18T08:44:23.534Z,0.9
2019-05-18T08:45:33.098Z,0.8
2019-05-18T08:46:42.665Z,0.9
2019-05-18T08:47:53.178Z,0.9
2019-05-18T08:49:01.681Z,0.9
2019-05-18T08:50:11.212Z,0.6
2019-05-18T08:51:20.767Z,0.9
2019-05-18T08:52:30.280Z,0.7
2019-05-18T08:53:39.785Z,0.9
2019-05-18T08:54:49.300Z,0.7
2019-05-18T08:55:58.857Z,1
2019-05-18T08:57:08.406Z,1
2019-05-18T08:58:17.957Z,1
2019-05-18T08:59:27.446Z,0.8
2019-05-18T09:00:36.969Z,0.9
2019-05-18T09:01:46.508Z,0.8
2019-05-18T09:02:56.041Z,0.8
2019-05-18T09:04:05.592Z,0.6
2019-05-18T09:05:15.160Z,0.9
2019-05-18T09:06:24.715Z,0.8
2019-05-18T09:07:34.235Z,0.5
2019-05-18T09:08:43.774Z,0.6
2019-05-18T09:09:53.304Z,0.8
2019-05-18T09:11:02.855Z,1.2
2019-05-18T09:12:12.432Z,0.8
2019-05-18T09:13:21.974Z,0.7
2019-05-18T09:14:31.506Z,0.9
2019-05-18T09:15:41.045Z,0.8
2019-05-18T09:16:50.615Z,1
2019-05-18T09:18:00.143Z,0.6
2019-05-18T09:19:09.662Z,1
2019-05-18T09:20:19.186Z,1.1
2019-05-18T09:21:28.749Z,0.9
2019-05-18T09:22:38.251Z,0.7
2019-05-18T09:23:47.766Z,0.9
2019-05-18T09:24:57.287Z,0.6
2019-05-18T09:26:06.827Z,0.8
2019-05-18T09:27:16.385Z,1
2019-05-18T09:28:25.915Z,0.7
2019-05-18T09:29:35.458Z,0.5
2019-05-18T09:30:44.974Z,0.8
2019-05-18T09:31:54.536Z,0.7
2019-05-18T09:33:04.072Z,1
2019-05-18T09:34:13.606Z,0.8
2019-05-18T09:35:23.123Z,0.5
2019-05-18T09:36:32.677Z,0.7
2019-05-18T09:37:42.205Z,0.7
2019-05-18T09:38:51.747Z,0.7
2019-05-18T09:40:01.293Z,0.7
2019-05-18T09:41:10.819Z,0.8
2019-05-18T09:42:20.388Z,0.7
2019-05-18T09:43:29.919Z,1
2019-05-18T09:44:39.436Z,0.9
2019-05-18T09:45:48.954Z,0.9
2019-05-18T09:46:58.509Z,0.9
2019-05-18T09:48:08.027Z,0.9
2019-05-18T09:49:17.552Z,0.6
2019-05-18T09:50:27.092Z,0.7
2019-05-18T09:51:36.677Z,0.7
2019-05-18T09:52:46.553Z,0.7
2019-05-18T09:53:55.701Z,0.8
2019-05-18T09:55:05.235Z,0.9
2019-05-18T09:56:14.777Z,0.8
2019-05-18T09:57:24.346Z,1
2019-05-18T09:58:33.853Z,1
2019-05-18T09:59:43.371Z,0.7
2019-05-18T10:00:53.994Z,1
2019-05-18T10:02:03.583Z,0.9
2019-05-18T10:03:13.179Z,0.8
2019-05-18T10:04:22.753Z,0.9
2019-05-18T10:05:32.330Z,0.8
2019-05-18T10:06:41.916Z,0.8
2019-05-18T10:07:51.447Z,1.2
2019-05-18T10:09:00.950Z,0.7
2019-05-18T10:10:10.528Z,0.7
2019-05-18T10:11:20.099Z,0.8
2019-05-18T10:12:29.640Z,1
2019-05-18T10:13:40.169Z,0.7
2019-05-18T10:14:49.692Z,1.2
2019-05-18T10:15:59.213Z,1.1
2019-05-18T10:17:08.797Z,0.8
2019-05-18T10:18:21.334Z,0.8
2019-05-18T10:19:28.891Z,0.8
2019-05-18T10:20:38.490Z,0.9
2019-05-18T10:21:48.054Z,0.9
2019-05-18T10:23:11.709Z,1.1
2019-05-18T10:24:08.160Z,0.8
2019-05-18T10:25:17.806Z,0.9
2019-05-18T10:26:27.322Z,0.7
2019-05-18T10:27:36.936Z,1
2019-05-18T10:28:46.511Z,1.3
2019-05-18T10:29:56.036Z,1
2019-05-18T10:31:05.552Z,1
2019-05-18T10:32:15.121Z,0.8
2019-05-18T10:33:24.657Z,0.8
2019-05-18T10:34:34.216Z,1.1
2019-05-18T10:35:43.810Z,1
2019-05-18T10:36:53.412Z,0.9
2019-05-18T10:38:02.928Z,0.9
2019-05-18T10:39:12.453Z,0.7
2019-05-18T10:40:21.985Z,0.9
2019-05-18T10:41:31.558Z,0.6
2019-05-18T10:42:41.101Z,0.9
2019-05-18T10:43:50.679Z,0.8
2019-05-18T10:45:00.339Z,0.5
2019-05-18T10:46:09.802Z,0.7
2019-05-18T10:47:19.337Z,0.5
2019-05-18T10:48:28.907Z,0.5
2019-05-18T10:49:38.417Z,0.7
2019-05-18T10:50:47.960Z,0.6
2019-05-18T10:51:57.495Z,0.7
2019-05-18T10:53:07.045Z,0.5
2019-05-18T10:54:16.550Z,0.9
2019-05-18T10:55:26.085Z,0.6
2019-05-18T10:56:35.630Z,0.5
2019-05-18T10:57:45.182Z,0.7
2019-05-18T10:58:54.736Z,0.6
2019-05-18T11:00:04.291Z,0.7
2019-05-18T11:01:13.819Z,0.6
2019-05-18T11:02:23.390Z,0.5
2019-05-18T11:03:32.901Z,0.6
2019-05-18T11:04:42.440Z,0.4
2019-05-18T11:05:51.944Z,0.5
2019-05-18T11:07:01.545Z,0.6
2019-05-18T11:08:11.096Z,0.8
2019-05-18T11:09:20.633Z,0.5
2019-05-18T11:10:30.148Z,0.6
2019-05-18T11:11:39.691Z,0.6
2019-05-18T11:12:49.320Z,0.7
2019-05-18T11:13:58.907Z,0.7
2019-05-18T11:15:08.485Z,0.6
2019-05-18T11:16:18.073Z,0.6
2019-05-18T11:17:27.638Z,0.6
2019-05-18T11:18:37.140Z,0.7
2019-05-18T11:19:46.687Z,0.6
2019-05-18T11:20:56.206Z,0.7
2019-05-18T11:22:05.750Z,0.6
2019-05-18T11:23:15.362Z,0.7
2019-05-18T11:24:24.878Z,0.7
2019-05-18T11:25:34.411Z,0.7
2019-05-18T11:26:43.921Z,0.8
2019-05-18T11:27:53.493Z,0.8
2019-05-18T11:29:03.026Z,0.5
2019-05-18T11:30:12.768Z,0.6
2019-05-18T11:31:22.235Z,0.8
2019-05-18T11:32:31.863Z,0.7
2019-05-18T11:33:41.407Z,0.9
2019-05-18T11:34:50.957Z,0.8
2019-05-18T11:36:00.478Z,0.6
2019-05-18T11:37:10.028Z,0.9
2019-05-18T11:38:19.593Z,0.5
2019-05-18T11:39:29.108Z,0.7
2019-05-18T11:40:38.645Z,0.3
2019-05-18T11:41:48.176Z,0.5
2019-05-18T11:42:58.781Z,0.5
2019-05-18T11:44:10.736Z,0.6
2019-05-18T11:45:18.834Z,0.7
2019-05-18T11:46:28.398Z,0.6
2019-05-18T11:47:38.004Z,0.7
2019-05-18T11:48:47.519Z,0.5
2019-05-18T11:49:57.096Z,0.6
2019-05-18T11:51:06.625Z,0.7
2019-05-18T11:52:16.219Z,0.5
2019-05-18T11:53:25.773Z,0.6
2019-05-18T11:54:35.365Z,0.6
2019-05-18T11:55:45.958Z,0.6
2019-05-18T11:56:55.585Z,0.7
2019-05-18T11:58:05.206Z,0.5
2019-05-18T11:59:15.673Z,0.5
2019-05-18T12:00:25.391Z,0.5
2019-05-18T12:01:34.953Z,0.7
2019-05-18T12:02:44.536Z,0.6
2019-05-18T12:03:55.039Z,0.3
2019-05-18T12:05:04.652Z,0.5
2019-05-18T12:06:14.237Z,0.5
2019-05-18T12:07:23.776Z,0.6
2019-05-18T12:08:33.377Z,0.5
2019-05-18T12:09:42.891Z,0.6
2019-05-18T12:10:52.418Z,0.7
2019-05-18T12:12:01.947Z,0.6
2019-05-18T12:13:11.600Z,0.7
2019-05-18T12:14:21.124Z,0.6
2019-05-18T12:15:30.649Z,0.6
2019-05-18T12:16:40.159Z,0.5
2019-05-18T12:17:49.693Z,0.4
2019-05-18T12:18:59.355Z,0.7
2019-05-18T12:20:08.843Z,0.5
2019-05-18T12:21:18.362Z,0.6
2019-05-18T12:22:27.878Z,0.7
2019-05-18T12:23:37.447Z,0.5
2019-05-18T12:24:47.015Z,0.5
2019-05-18T12:25:56.591Z,0.6
2019-05-18T12:27:06.127Z,0.4
2019-05-18T12:28:15.724Z,0.4
2019-05-18T12:29:25.309Z,0.6
2019-05-18T12:30:34.748Z,0.5
2019-05-18T12:31:44.286Z,0.3
2019-05-18T12:32:53.800Z,0.5
2019-05-18T12:34:03.354Z,0.5
2019-05-18T12:35:12.892Z,0.5
2019-05-18T12:36:22.401Z,0.4
2019-05-18T12:37:31.912Z,0.4
2019-05-18T12:38:41.475Z,0.4
2019-05-18T12:39:51.010Z,0.4
2019-05-18T12:41:00.542Z,0.6
2019-05-18T12:42:10.111Z,0.3
2019-05-18T12:43:19.664Z,0.4
2019-05-18T12:44:29.198Z,0.3
2019-05-18T12:45:38.793Z,0.3
2019-05-18T12:46:48.507Z,0.4
2019-05-18T12:47:57.894Z,0.3
2019-05-18T12:49:07.456Z,0.5
2019-05-18T12:50:17.014Z,0.3
2019-05-18T12:51:26.571Z,0.3
2019-05-18T12:52:36.097Z,0.4
2019-05-18T12:53:45.646Z,0.4
2019-05-18T12:54:55.221Z,0.2
2019-05-18T12:56:04.739Z,0.4
2019-05-18T12:57:14.264Z,0.3
2019-05-18T12:58:23.817Z,0.4
2019-05-18T12:59:33.345Z,0.3
2019-05-18T13:00:42.885Z,0.2
2019-05-18T13:01:52.427Z,0.3
2019-05-18T13:03:02.002Z,0.3
2019-05-18T13:04:11.547Z,0.6
2019-05-18T13:05:21.073Z,0.4
2019-05-18T13:06:30.587Z,0.4
2019-05-18T13:07:40.114Z,0.3
2019-05-18T13:08:49.675Z,0.4
2019-05-18T13:09:59.203Z,0.6
2019-05-18T13:11:08.772Z,0.6
2019-05-18T13:12:18.304Z,0.5
2019-05-18T13:13:27.909Z,0.5
2019-05-18T13:14:37.462Z,0.4
2019-05-18T13:15:47.013Z,0.5
2019-05-18T13:16:56.522Z,0.5
2019-05-18T13:18:06.055Z,0.3
2019-05-18T13:19:15.590Z,0.4
2019-05-18T13:20:25.172Z,0.4
2019-05-18T13:21:34.637Z,0.4
2019-05-18T13:22:44.181Z,0.4
2019-05-18T13:23:53.733Z,0.6
2019-05-18T13:25:03.262Z,0.4
2019-05-18T13:26:12.809Z,0.4
2019-05-18T13:27:36.657Z,0.3
2019-05-18T13:28:33.199Z,0.2
2019-05-18T13:29:42.785Z,0.3
2019-05-18T13:30:52.346Z,0.4
2019-05-18T13:32:01.878Z,0.3
2019-05-18T13:33:11.417Z,0.4
2019-05-18T13:34:20.986Z,0.3
2019-05-18T13:35:30.584Z,0.6
2019-05-18T13:36:40.175Z,0.4
2019-05-18T13:37:49.720Z,0.2
2019-05-18T13:38:59.324Z,0.3
2019-05-18T13:40:08.901Z,0.4
2019-05-18T13:41:18.441Z,0.3
2019-05-18T13:42:27.961Z,0.3
2019-05-18T13:43:37.659Z,0.2
2019-05-18T13:44:47.232Z,0.3
2019-05-18T13:45:56.734Z,0.4
2019-05-18T13:47:06.296Z,0.3
2019-05-18T13:48:15.844Z,0.3
2019-05-18T13:49:25.411Z,0.2
2019-05-18T13:50:34.970Z,0.4
2019-05-18T13:51:44.501Z,0.4
2019-05-18T13:52:54.058Z,0.3
2019-05-18T13:54:03.629Z,0.3
2019-05-18T13:55:13.166Z,0.2
2019-05-18T13:56:22.781Z,0.2
2019-05-18T13:57:32.277Z,0.3
2019-05-18T13:58:41.881Z,0.2
2019-05-18T13:59:51.432Z,0.2
2019-05-18T14:01:00.962Z,0.3
2019-05-18T14:02:10.509Z,0.3
2019-05-18T14:03:20.030Z,0.3
2019-05-18T14:04:29.591Z,0.3
2019-05-18T14:05:39.126Z,0.3
2019-05-18T14:06:48.701Z,0.2
2019-05-18T14:07:58.262Z,0.3
2019-05-18T14:09:07.841Z,0.3
2019-05-18T14:10:17.324Z,0.3
2019-05-18T14:11:26.865Z,0.2
2019-05-18T14:12:36.422Z,0.3
2019-05-18T14:13:45.958Z,0.2
2019-05-18T14:14:55.543Z,0.3
2019-05-18T14:16:05.173Z,0.3
2019-05-18T14:17:14.845Z,0.3
2019-05-18T14:18:24.363Z,0.2
2019-05-18T14:19:33.974Z,0.2
2019-05-18T14:20:43.451Z,0.3
2019-05-18T14:21:52.966Z,0.2
2019-05-18T14:23:02.490Z,0.3
2019-05-18T14:24:12.050Z,0.3
2019-05-18T14:25:21.551Z,0.3
2019-05-18T14:26:31.104Z,0.2
2019-05-18T14:27:40.618Z,0.2
2019-05-18T14:28:50.116Z,0.2
2019-05-18T14:29:59.682Z,0.1
2019-05-18T14:31:09.232Z,0.3
2019-05-18T14:32:18.758Z,0.3
2019-05-18T14:33:28.296Z,0.3
2019-05-18T14:34:37.852Z,0.2
2019-05-18T14:35:47.385Z,0.3
2019-05-18T14:36:57.010Z,0.2
2019-05-18T14:38:06.545Z,0.3
2019-05-18T14:39:16.117Z,0.3
2019-05-18T14:40:25.645Z,0.3
2019-05-18T14:41:35.175Z,0.2
2019-05-18T14:42:44.708Z,0.3
2019-05-18T14:43:54.234Z,0.3
2019-05-18T14:45:03.833Z,0.3
2019-05-18T14:46:13.370Z,0.4
2019-05-18T14:47:22.897Z,0.3
2019-05-18T14:48:32.500Z,0.3
2019-05-18T14:49:42.084Z,0.2
2019-05-18T14:50:51.613Z,0.2
2019-05-18T14:52:01.146Z,0.3
2019-05-18T14:53:10.710Z,0.4
2019-05-18T14:54:24.785Z,0.6
2019-05-18T14:55:33.551Z,0.3
2019-05-18T14:56:41.225Z,0.3
2019-05-18T14:57:50.789Z,0.2
2019-05-18T14:59:00.298Z,0.3
2019-05-18T15:00:09.862Z,0.2
2019-05-18T15:01:19.441Z,0.3
2019-05-18T15:02:28.969Z,0.2
2019-05-18T15:03:38.509Z,0.2
2019-05-18T15:04:48.064Z,0.2
2019-05-18T15:05:57.615Z,0.3
2019-05-18T15:07:07.156Z,0.2
2019-05-18T15:08:16.678Z,0.3
2019-05-18T15:09:26.403Z,0.4
2019-05-18T15:10:35.966Z,0.3
2019-05-18T15:11:46.511Z,0.3
2019-05-18T15:12:56.032Z,0.2
2019-05-18T15:14:05.578Z,0.3
2019-05-18T15:15:15.212Z,0.2
2019-05-18T15:16:24.815Z,0.2
2019-05-18T15:17:34.327Z,0.3
2019-05-18T15:18:43.851Z,0.3
2019-05-18T15:19:53.405Z,0.3
2019-05-18T15:21:02.935Z,0.2
2019-05-18T15:22:12.465Z,0.3
2019-05-18T15:23:21.995Z,0.3
2019-05-18T15:24:31.615Z,0.3
2019-05-18T15:25:49.955Z,0.3
2019-05-18T15:26:51.728Z,0.4
2019-05-18T15:28:01.272Z,0.4
2019-05-18T15:29:10.806Z,0.4
2019-05-18T15:30:20.386Z,0.3
2019-05-18T15:31:29.885Z,0.3
2019-05-18T15:32:39.399Z,0.5
2019-05-18T15:33:48.941Z,0.5
2019-05-18T15:34:58.506Z,0.4
2019-05-18T15:36:08.044Z,0.3
2019-05-18T15:37:17.609Z,0.3
2019-05-18T15:38:27.148Z,0.4
2019-05-18T15:39:36.806Z,0.4
2019-05-18T15:40:46.282Z,0.3
2019-05-18T15:41:55.827Z,0.4
2019-05-18T15:43:05.371Z,0.6
2019-05-18T15:44:14.910Z,0.8
2019-05-18T15:45:24.858Z,0.8
2019-05-18T15:46:34.103Z,0.5
2019-05-18T15:47:43.621Z,0.8
2019-05-18T15:48:53.275Z,0.6
2019-05-18T15:50:02.806Z,0.8
2019-05-18T15:51:12.342Z,0.5
2019-05-18T15:52:21.917Z,0.8
2019-05-18T15:53:31.446Z,1.1
2019-05-18T15:54:41.138Z,0.9
2019-05-18T15:56:03.223Z,0.7
2019-05-18T15:57:01.209Z,0.6
2019-05-18T15:58:10.729Z,0.6
2019-05-18T15:59:20.301Z,0.5
2019-05-18T16:00:29.866Z,0.4
2019-05-18T16:01:39.386Z,0.5
2019-05-18T16:02:48.974Z,0.4
2019-05-18T16:03:58.530Z,0.3